Time;durP1;ratioP1;P1;durP2;ratioP2;P2;SDS_P1;SDS_P2;PMS_P1;PMS_P2;Temp;Humidity;BMP_temperature;BMP_pressure;BME280_temperature;BME280_humidity;BME280_pressure;Samples;Min_cycle;Max_cycle;Signal;HPM_P1;HPM_P2
2022/04/01 00:04:22;;;;;;;17.62;11.60;;;;;;;0.22;100.00;97116.61;3934838;89;21162;-90
2022/04/01 00:10:23;;;;;;;17.32;10.90;;;;;;;0.22;100.00;97110.47;3877125;90;21115;-87
2022/04/01 00:16:25;;;;;;;15.28;10.45;;;;;;;0.22;100.00;97110.47;4005283;87;21573;-89
2022/04/01 00:22:27;;;;;;;16.17;11.45;;;;;;;0.24;100.00;97108.98;4004362;87;21577;-88
2022/04/01 00:28:34;;;;;;;19.87;11.63;;;;;;;0.24;100.00;97108.98;4003988;87;21104;-88
2022/04/01 00:34:36;;;;;;;14.68;10.13;;;;;;;0.25;100.00;97103.80;4006015;87;21133;-87
2022/04/01 00:40:40;;;;;;;15.20;9.40;;;;;;;0.25;100.00;97103.80;4002740;87;21061;-88
2022/04/01 00:46:49;;;;;;;16.55;10.35;;;;;;;0.27;100.00;97096.16;4005605;87;21098;-87
2022/04/01 00:52:53;;;;;;;15.20;10.28;;;;;;;0.27;100.00;97096.74;4018474;87;21009;-89
2022/04/01 00:58:58;;;;;;;16.35;10.90;;;;;;;0.16;100.00;97076.32;3913613;90;21676;-87
2022/04/01 01:05:04;;;;;;;19.67;11.93;;;;;;;0.29;100.00;97099.84;3884291;90;21177;-87
2022/04/01 01:11:08;;;;;;;20.88;11.38;;;;;;;0.32;100.00;97107.20;3882528;90;21050;-86
2022/04/01 01:17:12;;;;;;;18.75;11.10;;;;;;;0.32;100.00;97107.20;4007864;87;21047;-87
2022/04/01 01:23:18;;;;;;;16.95;11.30;;;;;;;0.31;100.00;97097.58;4026233;87;21038;-88
2022/04/01 01:29:30;;;;;;;23.80;16.00;;;;;;;0.29;100.00;97093.11;3916032;90;21086;-89
2022/04/01 01:35:34;;;;;;;19.80;12.60;;;;;;;0.27;100.00;97083.28;3817940;91;22123;-87
2022/04/01 01:41:37;;;;;;;21.05;12.88;;;;;;;0.26;100.00;97085.75;3899561;90;21178;-87
2022/04/01 01:47:38;;;;;;;22.07;12.73;;;;;;;0.15;100.00;97064.02;3881783;90;21092;-88
2022/04/01 02:00:10;;;;;;;16.48;10.72;;;;;;;0.24;100.00;97061.09;3922451;89;21110;-86
2022/04/01 02:06:13;;;;;;;16.12;9.93;;;;;;;0.23;100.00;97066.27;3858628;90;21627;-87
2022/04/01 02:12:18;;;;;;;13.40;9.13;;;;;;;0.22;100.00;97055.31;3857009;90;22084;-89
2022/04/01 02:18:22;;;;;;;;;;;;;;;0.23;100.00;97055.51;3858184;90;21116;-87
2022/04/01 02:24:24;;;;;;;12.25;7.50;;;;;;;0.22;100.00;97053.97;3934991;89;20195;-87
2022/04/01 02:30:26;;;;;;;13.25;9.05;;;;;;;0.21;100.00;97053.17;3935441;89;21090;-87
2022/04/01 02:36:48;;;;;;;15.48;8.55;;;;;;;0.22;100.00;97048.58;3934908;89;21178;-87
2022/04/01 02:42:54;;;;;;;10.53;7.33;;;;;;;0.22;100.00;97052.03;3855548;90;21105;-89
2022/04/01 02:48:56;;;;;;;12.10;8.60;;;;;;;0.22;100.00;97044.55;3920228;89;21130;-87
2022/04/01 02:55:08;;;;;;;11.53;8.15;;;;;;;0.21;100.00;97045.66;3954500;89;21823;-89
2022/04/01 03:01:10;;;;;;;14.73;8.15;;;;;;;0.21;100.00;97036.24;3885686;91;21168;-89
2022/04/01 03:07:13;;;;;;;13.98;9.35;;;;;;;0.19;100.00;97039.28;3876947;90;21108;-88
2022/04/01 03:13:16;;;;;;;12.25;8.43;;;;;;;0.21;100.00;97028.17;3920100;89;21095;-88
2022/04/01 03:19:39;;;;;;;23.52;13.70;;;;;;;0.11;100.00;97012.61;3960215;89;21042;-87
2022/04/01 03:25:39;;;;;;;13.83;10.28;;;;;;;0.19;100.00;97030.45;3888877;90;21192;-89
2022/04/01 03:31:58;;;;;;;16.95;11.40;;;;;;;0.20;100.00;97029.31;4006735;87;21102;-87
2022/04/01 03:38:00;;;;;;;12.13;8.83;;;;;;;0.19;100.00;97030.45;4023327;87;21137;-88
2022/04/01 03:44:02;;;;;;;15.45;10.45;;;;;;;0.19;100.00;97027.17;4010266;87;21094;-89
2022/04/01 03:50:10;;;;;;;13.13;8.78;;;;;;;0.18;100.00;97020.25;4014014;87;21074;-88
2022/04/01 03:56:14;;;;;;;17.07;10.48;;;;;;;0.19;100.00;97017.00;4021565;87;21109;-87
2022/04/01 04:02:35;;;;;;;17.90;10.45;;;;;;;0.20;100.00;97033.34;4013950;87;21070;-88
2022/04/01 04:08:38;;;;;;;13.70;10.03;;;;;;;0.21;100.00;97028.95;4017731;87;21066;-87
2022/04/01 04:14:42;;;;;;;15.18;10.40;;;;;;;0.21;100.00;97038.38;4014904;87;21089;-92
2022/04/01 04:21:13;;;;;;;17.70;11.73;;;;;;;0.23;100.00;97050.13;4013029;87;21117;-88
2022/04/01 04:27:17;;;;;;;13.90;10.05;;;;;;;0.10;100.00;97014.52;4013000;86;21110;-94
2022/04/01 04:33:25;;;;;;;13.48;9.55;;;;;;;0.19;100.00;97032.56;4013065;87;22262;-90
2022/04/01 04:39:33;;;;;;;14.43;9.28;;;;;;;0.21;100.00;97033.55;3953531;89;21045;-88
2022/04/01 04:45:36;;;;;;;14.30;9.45;;;;;;;0.21;100.00;97033.55;4014805;87;21592;-92
2022/04/01 04:51:38;;;;;;;13.40;9.58;;;;;;;0.22;100.00;97039.92;4018116;88;21352;-92
2022/04/01 04:57:53;;;;;;;17.15;9.90;;;;;;;0.23;100.00;97042.05;4009719;87;21078;-86
2022/04/01 05:04:40;;;;;;;15.28;10.50;;;;;;;0.15;100.00;97030.38;4023804;87;21613;-87
2022/04/01 05:11:13;;;;;;;14.38;10.25;;;;;;;0.14;100.00;97048.22;4014399;87;21134;-87
2022/04/01 05:17:28;;;;;;;13.50;9.48;;;;;;;0.14;100.00;97048.22;4020169;87;21139;-86
2022/04/01 05:23:55;;;;;;;13.00;9.50;;;;;;;0.14;100.00;97051.70;4045643;86;21202;-88
2022/04/01 05:30:13;;;;;;;12.15;9.23;;;;;;;0.14;100.00;97051.70;4035161;87;21070;-89
2022/04/01 05:36:17;;;;;;;12.80;8.58;;;;;;;0.25;100.00;97078.23;4024881;87;21082;-86
2022/04/01 05:42:21;;;;;;;16.97;10.18;;;;;;;0.25;100.00;97082.27;4024514;87;21559;-89
2022/04/01 05:48:27;;;;;;;16.75;9.50;;;;;;;0.26;100.00;97083.05;4021006;87;21086;-88
2022/04/01 05:54:30;;;;;;;14.50;9.90;;;;;;;0.26;100.00;97082.50;4009358;87;21126;-88
2022/04/01 06:00:54;;;;;;;12.40;8.83;;;;;;;0.26;100.00;97082.50;3933309;89;21078;-87
2022/04/01 06:07:12;;;;;;;15.20;10.30;;;;;;;0.30;100.00;97085.27;4001812;87;21694;-90
2022/04/01 06:13:58;;;;;;;11.63;9.15;;;;;;;0.36;100.00;97082.50;3882638;89;21625;-90
2022/04/01 06:20:21;;;;;;;15.48;11.03;;;;;;;0.36;100.00;97082.50;4001687;88;21609;-88
2022/04/01 06:26:27;;;;;;;17.55;11.97;;;;;;;0.39;100.00;97089.31;3990126;88;21075;-88
2022/04/01 06:33:03;;;;;;;13.68;9.75;;;;;;;0.41;100.00;97082.98;3928382;89;21095;-87
2022/04/01 06:39:08;;;;;;;16.17;11.18;;;;;;;0.42;100.00;97084.56;3876195;89;21087;-90
2022/04/01 06:45:15;;;;;;;14.50;10.97;;;;;;;0.36;100.00;97070.39;3878006;90;21528;-89
2022/04/01 06:51:27;;;;;;;11.40;7.97;;;;;;;0.46;100.00;97090.78;3964462;87;21172;-90
2022/04/01 06:57:47;;;;;;;17.55;10.30;;;;;;;0.46;100.00;97092.69;4022678;87;21093;-91
2022/04/01 07:03:53;;;;;;;13.78;9.65;;;;;;;0.46;100.00;97091.34;4025815;87;21042;-88
2022/04/01 07:09:55;;;;;;;15.85;10.68;;;;;;;0.47;100.00;97090.98;3975758;88;21113;-88
2022/04/01 07:15:57;;;;;;;12.40;8.75;;;;;;;0.55;100.00;97086.54;3922243;90;21705;-88
2022/04/01 07:21:59;;;;;;;17.75;10.58;;;;;;;0.59;100.00;97085.47;4045734;87;22079;-89
2022/04/01 07:28:00;;;;;;;15.90;10.10;;;;;;;0.50;100.00;97066.05;4034466;87;21145;-88
2022/04/01 07:34:04;;;;;;;13.15;8.65;;;;;;;0.57;100.00;97083.69;4027563;87;21589;-88
2022/04/01 07:40:07;;;;;;;11.80;8.85;;;;;;;0.65;100.00;97093.47;4029289;87;21090;-88
2022/04/01 07:46:11;;;;;;;13.13;8.58;;;;;;;0.67;100.00;97095.80;4023358;87;21054;-89
2022/04/01 07:52:14;;;;;;;10.20;7.60;;;;;;;0.69;100.00;97099.69;4004327;87;21075;-88
2022/04/01 07:58:18;;;;;;;11.10;7.80;;;;;;;0.70;100.00;97095.88;4005543;88;22465;-89
2022/04/01 08:04:22;;;;;;;11.20;7.78;;;;;;;0.70;100.00;97095.88;3990959;88;21098;-89
2022/04/01 08:10:23;;;;;;;10.93;8.00;;;;;;;0.74;100.00;97104.79;3987722;87;22148;-89
2022/04/01 08:16:24;;;;;;;10.20;7.87;;;;;;;0.78;100.00;97112.39;3999642;87;21103;-89
2022/04/01 08:22:30;;;;;;;11.12;7.78;;;;;;;0.80;100.00;97110.09;3998167;88;21102;-92
2022/04/01 08:28:32;;;;;;;11.63;9.00;;;;;;;0.77;100.00;97110.81;3994969;88;21098;-89
2022/04/01 08:34:33;;;;;;;14.30;10.65;;;;;;;0.75;100.00;97117.11;4003720;88;21165;-90
2022/04/01 08:40:35;;;;;;;11.45;9.13;;;;;;;0.77;100.00;97117.55;3994417;88;21130;-89
2022/04/01 08:46:36;;;;;;;11.48;8.63;;;;;;;0.78;100.00;97119.13;4004837;88;21590;-88
2022/04/01 08:52:38;;;;;;;11.35;9.35;;;;;;;0.76;100.00;97112.52;4038138;87;21164;-88
2022/04/01 08:58:40;;;;;;;12.47;9.03;;;;;;;0.80;100.00;97118.17;4007634;87;21077;-89
2022/04/01 09:04:42;;;;;;;11.05;8.10;;;;;;;0.86;100.00;97124.83;4067486;87;20998;-88
2022/04/01 09:11:05;;;;;;;11.57;8.30;;;;;;;0.96;100.00;97126.95;4031965;87;21018;-87
2022/04/01 09:17:11;;;;;;;13.03;8.55;;;;;;;0.97;100.00;97130.44;3976543;87;22150;-89
2022/04/01 09:23:13;;;;;;;8.38;6.78;;;;;;;1.00;100.00;97129.72;4015509;87;21119;-88
2022/04/01 09:29:18;;;;;;;12.65;9.10;;;;;;;0.98;100.00;97134.12;3982222;87;22176;-89
2022/04/01 09:35:28;;;;;;;13.30;8.33;;;;;;;1.02;100.00;97126.86;3973717;87;21110;-88
2022/04/01 09:41:35;;;;;;;13.45;9.90;;;;;;;1.02;100.00;97130.12;3999943;87;21474;-91
2022/04/01 09:47:38;;;;;;;16.35;11.28;;;;;;;0.93;100.00;97133.05;4038196;87;21134;-90
2022/04/01 09:53:40;;;;;;;20.37;14.15;;;;;;;0.84;100.00;97134.41;4046093;87;21076;-89
2022/04/01 09:59:44;;;;;;;20.37;14.33;;;;;;;0.88;100.00;97139.28;4032232;87;21066;-90
2022/04/01 10:05:46;;;;;;;17.12;12.78;;;;;;;0.93;100.00;97136.30;4025464;87;21037;-92
2022/04/01 10:11:49;;;;;;;11.68;9.10;;;;;;;0.97;100.00;97133.88;4046343;87;21101;-89
2022/04/01 10:17:54;;;;;;;11.97;8.35;;;;;;;0.95;100.00;97143.47;4049592;87;21101;-89
2022/04/01 10:24:16;;;;;;;10.23;7.47;;;;;;;0.96;100.00;97151.20;4009650;86;21082;-88
2022/04/01 10:30:22;;;;;;;15.28;11.00;;;;;;;0.98;100.00;97146.80;4041734;87;21074;-87
2022/04/01 10:36:34;;;;;;;11.97;8.30;;;;;;;0.98;100.00;97149.49;4017559;87;21065;-89
2022/04/01 10:42:38;;;;;;;11.80;8.98;;;;;;;1.01;100.00;97146.08;4025960;87;21569;-89
2022/04/01 10:55:30;;;;;;;11.65;8.85;;;;;;;0.91;100.00;97148.03;4023744;87;22068;-88
2022/04/01 11:01:36;;;;;;;12.53;9.93;;;;;;;0.86;100.00;97152.34;4003684;87;21134;-90
2022/04/01 11:07:38;;;;;;;19.60;12.40;;;;;;;0.85;100.00;97158.30;3937035;89;21175;-90
2022/04/01 11:13:39;;;;;;;13.10;8.78;;;;;;;0.78;100.00;97159.52;3984875;87;21126;-89
2022/04/01 11:20:04;;;;;;;11.85;9.18;;;;;;;0.85;100.00;97167.72;3990187;87;21281;-89
2022/04/01 11:26:05;;;;;;;12.45;9.15;;;;;;;0.90;100.00;97171.48;4003754;87;21139;-89
2022/04/01 11:32:08;;;;;;;10.15;7.83;;;;;;;0.92;100.00;97175.95;3999957;87;21074;-91
2022/04/01 11:38:14;;;;;;;9.15;7.50;;;;;;;0.84;100.00;97176.95;3997088;87;21603;-91
2022/04/01 11:44:16;;;;;;;11.45;8.63;;;;;;;0.79;100.00;97181.83;3991931;87;21191;-93
2022/04/01 11:50:22;;;;;;;11.15;8.73;;;;;;;0.80;100.00;97184.75;3944198;89;21181;-90
2022/04/01 11:56:27;;;;;;;12.03;8.15;;;;;;;0.78;100.00;97192.40;4022968;87;21082;-92
2022/04/01 12:02:29;;;;;;;9.53;7.58;;;;;;;0.75;100.00;97189.83;4006154;88;21142;-91
2022/04/01 12:08:42;;;;;;;10.03;7.35;;;;;;;0.75;100.00;97185.03;4005901;87;21055;-90
2022/04/01 12:14:44;;;;;;;9.83;7.72;;;;;;;0.80;100.00;97187.45;4012339;87;21082;-92
2022/04/01 12:20:52;;;;;;;10.98;7.70;;;;;;;0.77;100.00;97183.53;3996253;87;21094;-90
2022/04/01 12:26:54;;;;;;;11.78;8.28;;;;;;;0.77;100.00;97183.53;3998433;88;21082;-90
2022/04/01 12:32:58;;;;;;;10.18;7.83;;;;;;;0.93;100.00;97190.98;3994820;87;21074;-90
2022/04/01 12:39:08;;;;;;;14.13;8.33;;;;;;;0.99;100.00;97190.89;4008020;88;21102;-91
2022/04/01 12:45:10;;;;;;;8.88;6.53;;;;;;;1.09;100.00;97187.64;4010905;87;21086;-90
2022/04/01 12:51:27;;;;;;;8.68;6.40;;;;;;;1.16;100.00;97188.34;3985634;87;21089;-92
2022/04/01 12:57:30;;;;;;;11.65;7.75;;;;;;;1.09;100.00;97189.55;3901281;90;21045;-91
2022/04/01 13:03:37;;;;;;;12.07;9.03;;;;;;;1.00;100.00;97194.38;3858507;90;21120;-90
2022/04/01 13:09:49;;;;;;;16.97;10.78;;;;;;;1.00;100.00;97193.80;3896678;90;21110;-91
2022/04/01 13:15:51;;;;;;;19.92;13.40;;;;;;;0.90;100.00;97197.08;3837933;92;21215;-89
2022/04/01 13:21:56;;;;;;;17.95;12.65;;;;;;;0.83;100.00;97195.58;3851548;91;21109;-89
2022/04/01 13:27:58;;;;;;;19.50;14.25;;;;;;;0.77;100.00;97197.55;3843210;91;21095;-89
2022/04/01 13:34:01;;;;;;;15.50;11.78;;;;;;;0.77;100.00;97207.77;3839446;91;21192;-93
2022/04/01 13:40:04;;;;;;;14.90;11.25;;;;;;;0.77;100.00;97205.63;3827796;92;21152;-90
2022/04/01 13:46:07;;;;;;;15.38;11.03;;;;;;;0.77;100.00;97208.33;3844082;92;21180;-90
2022/04/01 13:52:11;;;;;;;16.17;12.20;;;;;;;0.75;100.00;97210.03;3871947;90;21746;-92
2022/04/01 13:58:14;;;;;;;14.10;11.10;;;;;;;0.83;100.00;97205.59;3881137;90;21076;-90
2022/04/01 14:04:18;;;;;;;13.85;10.23;;;;;;;0.87;100.00;97208.56;3876899;90;21693;-91
2022/04/01 14:10:20;;;;;;;16.93;13.13;;;;;;;0.85;100.00;97201.95;3874882;90;21069;-91
2022/04/01 14:16:21;;;;;;;12.80;10.43;;;;;;;0.86;100.00;97203.53;3967657;88;21638;-91
2022/04/01 14:22:23;;;;;;;13.68;10.08;;;;;;;0.87;100.00;97216.64;3997937;87;21168;-90
2022/04/01 14:28:25;;;;;;;13.95;10.55;;;;;;;0.77;100.00;97218.55;3997137;87;21098;-90
2022/04/01 14:34:36;;;;;;;12.90;10.13;;;;;;;0.68;100.00;97226.61;3997267;88;21150;-90
2022/04/01 14:40:38;;;;;;;17.73;13.35;;;;;;;0.71;100.00;97229.38;3999968;87;21125;-92
2022/04/01 14:46:40;;;;;;;18.10;12.43;;;;;;;0.81;100.00;97238.83;3996509;87;21094;-90
2022/04/01 14:52:41;;;;;;;19.30;14.00;;;;;;;0.80;100.00;97244.77;4012058;87;21094;-90
2022/04/01 14:58:42;;;;;;;14.23;11.55;;;;;;;0.75;100.00;97241.00;4027737;87;21045;-90
2022/04/01 15:04:45;;;;;;;16.93;12.23;;;;;;;0.69;100.00;97245.70;4040834;87;21050;-89
2022/04/01 15:10:46;;;;;;;19.52;12.95;;;;;;;0.64;100.00;97247.31;4039375;87;21095;-90
2022/04/01 15:16:48;;;;;;;17.67;13.70;;;;;;;0.61;100.00;97250.71;4009617;87;21113;-91
2022/04/01 15:22:49;;;;;;;20.10;14.47;;;;;;;0.62;100.00;97247.66;4005460;87;21542;-90
2022/04/01 15:28:51;;;;;;;18.00;13.13;;;;;;;0.65;100.00;97255.59;4026290;87;21006;-90
2022/04/01 15:34:53;;;;;;;24.30;16.67;;;;;;;0.63;100.00;97249.77;4063942;87;21080;-93
2022/04/01 15:41:02;;;;;;;20.45;14.40;;;;;;;0.58;100.00;97254.11;4027891;87;21598;-90
2022/04/01 15:47:07;;;;;;;17.55;13.30;;;;;;;0.53;100.00;97257.86;4040102;86;21680;-92
2022/04/01 15:53:08;;;;;;;18.30;12.60;;;;;;;0.53;100.00;97257.07;4012465;87;21726;-91
2022/04/01 15:59:11;;;;;;;28.27;18.30;;;;;;;0.55;100.00;97265.59;3997664;87;21062;-92
2022/04/01 16:05:15;;;;;;;21.75;14.10;;;;;;;0.59;100.00;97276.64;4015721;83;82639;-90
2022/04/01 16:11:20;;;;;;;22.45;13.78;;;;;;;0.59;100.00;97287.41;4170351;84;22028;-89
2022/04/01 16:17:22;;;;;;;20.82;15.23;;;;;;;0.55;100.00;97291.16;4183113;83;21051;-89
2022/04/01 16:23:29;;;;;;;24.23;16.52;;;;;;;0.50;100.00;97290.08;4226391;82;21587;-87
2022/04/01 16:29:30;;;;;;;26.57;17.37;;;;;;;0.48;100.00;97302.55;4165482;84;21078;-88
2022/04/01 16:35:32;;;;;;;26.05;17.85;;;;;;;0.41;100.00;97308.34;4225745;83;21079;-88
2022/04/01 16:41:36;;;;;;;29.25;19.23;;;;;;;0.35;100.00;97316.44;4219163;83;21028;-88
2022/04/01 16:47:46;;;;;;;41.60;24.52;;;;;;;0.09;100.00;97287.94;4238602;82;21011;-88
2022/04/01 16:54:11;;;;;;;39.67;23.12;;;;;;;0.27;100.00;97326.25;4219241;82;21054;-88
2022/04/01 17:00:40;;;;;;;39.60;22.45;;;;;;;0.27;100.00;97330.88;4214413;82;22166;-88
2022/04/01 17:13:13;;;;;;;43.73;24.07;;;;;;;0.19;100.00;97337.97;4053067;84;21102;-91
2022/04/01 17:19:28;;;;;;;33.92;20.50;;;;;;;0.08;100.00;97333.47;4187292;84;21662;-89
2022/04/01 17:25:37;;;;;;;31.42;21.15;;;;;;;0.08;100.00;97333.47;4237425;83;21630;-89
2022/04/01 17:31:46;;;;;;;33.00;20.95;;;;;;;0.16;100.00;97355.40;4200304;83;21027;-89
2022/04/01 17:37:51;;;;;;;28.70;18.82;;;;;;;0.14;100.00;97357.09;4206561;82;21027;-89
2022/04/01 17:44:02;;;;;;;29.10;19.23;;;;;;;0.12;100.00;97364.72;4214164;82;21114;-88
2022/04/01 17:50:14;;;;;;;26.20;18.73;;;;;;;0.11;100.00;97373.14;4186166;83;21237;-84
2022/04/01 17:56:28;;;;;;;28.47;19.77;;;;;;;0.15;100.00;97382.06;4202742;83;21071;-88
2022/04/01 18:02:34;;;;;;;26.25;17.10;;;;;;;0.11;100.00;97391.97;4082564;83;9999759;-89
2022/04/01 18:08:40;;;;;;;28.62;18.57;;;;;;;0.07;100.00;97399.15;4212350;82;22085;-88
2022/04/01 18:14:44;;;;;;;27.22;17.95;;;;;;;-0.07;100.00;97378.84;4222344;82;21409;-89
2022/04/01 18:20:47;;;;;;;27.17;17.67;;;;;;;0.03;100.00;97398.50;4209050;83;21022;-89
2022/04/01 18:26:53;;;;;;;29.30;18.48;;;;;;;0.03;100.00;97398.50;4207342;83;21023;-87
2022/04/01 18:33:18;;;;;;;26.77;18.55;;;;;;;-0.08;100.00;97380.53;4221334;82;21062;-88
2022/04/01 18:39:23;;;;;;;28.55;17.32;;;;;;;-0.01;100.00;97384.73;4208988;83;21078;-88
2022/04/01 18:45:26;;;;;;;35.23;18.32;;;;;;;0.15;100.00;97404.39;4213855;82;20988;-89
2022/04/01 18:51:28;;;;;;;29.57;18.90;;;;;;;0.18;100.00;97404.25;4218413;83;21009;-88
2022/04/01 18:57:29;;;;;;;30.02;18.48;;;;;;;0.13;100.00;97406.63;4211903;82;21401;-87
2022/04/01 19:03:35;;;;;;;39.20;23.98;;;;;;;0.13;100.00;97409.32;4091967;83;10000164;-88
2022/04/01 19:09:54;;;;;;;31.82;19.82;;;;;;;0.16;100.00;97406.52;4282207;82;20987;-87
2022/04/01 19:15:56;;;;;;;29.72;21.23;;;;;;;0.16;100.00;97410.56;4307639;82;20986;-87
2022/04/01 19:22:11;;;;;;;36.20;23.07;;;;;;;0.20;100.00;97416.80;4297776;82;21040;-86
2022/04/01 19:28:13;;;;;;;34.55;20.85;;;;;;;0.16;100.00;97414.59;4270237;82;20979;-86
2022/04/01 19:34:15;;;;;;;30.95;19.07;;;;;;;0.11;100.00;97405.42;4292772;82;21017;-85
2022/04/01 19:40:16;;;;;;;34.40;21.12;;;;;;;0.23;100.00;97417.45;4188581;83;21067;-86
2022/04/01 19:46:20;;;;;;;30.37;19.23;;;;;;;0.28;100.00;97419.89;4254959;82;20998;-86
2022/04/01 19:52:22;;;;;;;28.92;18.50;;;;;;;0.28;100.00;97423.38;4219804;82;21002;-86
2022/04/01 19:58:24;;;;;;;27.35;17.17;;;;;;;0.28;100.00;97417.20;4210642;83;21114;-85
2022/04/01 20:04:25;;;;;;;27.22;17.82;;;;;;;0.28;100.00;97424.73;4216254;83;21071;-85
2022/04/01 20:10:27;;;;;;;25.45;17.15;;;;;;;0.29;100.00;97428.97;4124681;85;21056;-86
2022/04/01 20:16:29;;;;;;;22.65;15.95;;;;;;;0.19;100.00;97420.62;4227357;83;21014;-87
2022/04/01 20:22:30;;;;;;;32.88;16.80;;;;;;;0.09;100.00;97409.02;4190813;82;21003;-86
2022/04/01 20:28:32;;;;;;;29.32;18.82;;;;;;;0.27;100.00;97443.33;4181756;84;20992;-85
2022/04/01 20:34:33;;;;;;;26.05;17.20;;;;;;;0.29;100.00;97447.02;3983027;85;9999831;-85
2022/04/01 20:40:35;;;;;;;23.32;16.23;;;;;;;0.26;100.00;97451.19;4160506;85;21824;-85
2022/04/01 20:46:37;;;;;;;23.65;15.95;;;;;;;0.25;100.00;97449.61;4188742;84;21809;-86
2022/04/01 20:52:39;;;;;;;20.88;14.43;;;;;;;0.25;100.00;97449.61;4191434;82;21599;-85
2022/04/01 20:58:40;;;;;;;22.25;15.78;;;;;;;0.28;100.00;97458.38;4169269;85;21122;-85
2022/04/01 21:04:41;;;;;;;23.98;16.00;;;;;;;0.26;100.00;97461.95;4155342;85;22192;-85
2022/04/01 21:10:43;;;;;;;21.07;13.75;;;;;;;0.29;100.00;97468.55;4154459;85;21028;-85
2022/04/01 21:16:44;;;;;;;25.43;14.60;;;;;;;0.25;100.00;97469.03;4148206;85;21044;-85
2022/04/01 21:22:46;;;;;;;26.07;15.03;;;;;;;0.17;100.00;97475.34;4074288;86;21031;-85
2022/04/01 21:28:47;;;;;;;42.15;21.05;;;;;;;0.18;100.00;97474.21;4091878;87;21065;-86
2022/04/01 21:34:50;;;;;;;45.83;23.25;;;;;;;0.19;100.00;97474.45;4131613;85;21163;-84
2022/04/01 21:40:53;;;;;;;63.98;30.20;;;;;;;0.03;100.00;97460.17;4086899;86;21078;-84
2022/04/01 21:46:54;;;;;;;63.28;31.00;;;;;;;0.05;100.00;97474.83;4089509;86;21057;-84
2022/04/01 21:52:56;;;;;;;41.58;20.23;;;;;;;-0.04;100.00;97456.16;4091537;87;21133;-84
2022/04/01 21:58:57;;;;;;;25.72;16.07;;;;;;;0.07;100.00;97470.45;4055052;87;21131;-84
2022/04/01 22:04:58;;;;;;;37.05;19.00;;;;;;;0.06;100.00;97470.23;4123773;85;21536;-84
2022/04/01 22:11:00;;;;;;;22.35;15.43;;;;;;;0.09;100.00;97464.96;4172344;83;21102;-85
2022/04/01 22:17:01;;;;;;;19.77;12.43;;;;;;;0.06;100.00;97465.66;4178087;83;22318;-84
2022/04/01 22:23:06;;;;;;;22.15;14.30;;;;;;;0.05;100.00;97455.23;4234617;82;21075;-85
2022/04/01 22:29:08;;;;;;;30.70;15.70;;;;;;;0.09;100.00;97448.82;4232335;83;20950;-84
2022/04/01 22:35:11;;;;;;;20.05;13.35;;;;;;;0.09;100.00;97450.72;4185227;83;21027;-84
2022/04/01 22:41:13;;;;;;;32.17;14.75;;;;;;;0.12;100.00;97455.41;4247662;83;21023;-84
2022/04/01 22:47:15;;;;;;;23.32;13.60;;;;;;;0.07;100.00;97449.72;4227234;82;21019;-86
2022/04/01 22:53:17;;;;;;;21.52;14.33;;;;;;;0.02;100.00;97447.85;4151842;84;21495;-85
2022/04/01 22:59:19;;;;;;;26.10;14.80;;;;;;;0.01;100.00;97449.75;4231637;81;21354;-85
2022/04/01 23:05:21;;;;;;;23.10;15.00;;;;;;;0.08;100.00;97452.62;4225954;83;21027;-86
2022/04/01 23:11:24;;;;;;;23.90;15.75;;;;;;;0.04;100.00;97450.41;4265584;83;21022;-84
2022/04/01 23:17:25;;;;;;;26.85;14.53;;;;;;;-0.07;100.00;97426.47;4289330;83;20966;-84
2022/04/01 23:23:26;;;;;;;27.82;14.65;;;;;;;-0.06;100.00;97418.05;4281288;82;21864;-85
2022/04/01 23:29:29;;;;;;;26.50;16.52;;;;;;;-0.06;100.00;97418.05;4268578;83;20947;-85
2022/04/01 23:35:31;;;;;;;23.85;13.83;;;;;;;0.12;100.00;97437.36;4277783;83;21672;-84
2022/04/01 23:41:33;;;;;;;29.15;16.57;;;;;;;0.07;100.00;97432.23;4191637;84;21595;-85
2022/04/01 23:47:35;;;;;;;23.12;15.13;;;;;;;-0.05;100.00;97418.27;4191555;84;21103;-84
2022/04/01 23:53:36;;;;;;;22.95;14.45;;;;;;;-0.05;100.00;97418.27;4199499;84;20999;-84
2022/04/01 23:59:37;;;;;;;28.80;16.93;;;;;;;0.09;100.00;97434.58;4195937;83;21008;-85
